Time;durP1;ratioP1;P1;durP2;ratioP2;P2;SDS_P1;SDS_P2;PMS_P1;PMS_P2;Temp;Humidity;BMP_temperature;BMP_pressure;BME280_temperature;BME280_humidity;BME280_pressure;Samples;Min_cycle;Max_cycle;Signal;HPM_P1;HPM_P2
2022/09/09 00:01:45;;;;;;;2.60;1.60;;;25.80;65.30;;;;;;5062085;28;20055;-79
2022/09/09 00:04:38;;;;;;;6.57;2.10;;;25.90;65.60;;;;;;5064399;28;20102;-79
2022/09/09 00:07:32;;;;;;;3.80;1.63;;;26.00;65.30;;;;;;5069647;28;20506;-78
2022/09/09 00:10:27;;;;;;;3.90;1.60;;;26.10;65.20;;;;;;5071601;28;20021;-79
2022/09/09 00:13:29;;;;;;;5.70;1.83;;;25.90;65.30;;;;;;5074604;28;20412;-78
2022/09/09 00:15:59;;;;;;;2.55;1.60;;;25.70;65.90;;;;;;5060399;28;20054;-78
2022/09/09 00:18:33;;;;;;;3.75;1.70;;;25.70;65.60;;;;;;5062854;28;20476;-78
2022/09/09 00:21:15;;;;;;;3.45;1.60;;;25.80;65.30;;;;;;5063772;28;20029;-79
2022/09/09 00:23:55;;;;;;;2.92;1.60;;;25.90;65.70;;;;;;5072828;28;20049;-78
2022/09/09 00:26:35;;;;;;;3.83;1.80;;;25.90;65.80;;;;;;5073021;28;20025;-79
2022/09/09 00:29:29;;;;;;;4.53;1.70;;;25.60;65.80;;;;;;5073213;28;20490;-79
2022/09/09 00:32:04;;;;;;;3.85;1.60;;;25.60;65.80;;;;;;5071750;28;20097;-78
2022/09/09 00:34:31;;;;;;;3.85;1.60;;;25.70;66.20;;;;;;5076585;28;20017;-80
2022/09/09 00:36:57;;;;;;;3.60;1.90;;;25.80;64.80;;;;;;5076945;28;20502;-78
2022/09/09 00:39:37;;;;;;;3.03;1.70;;;25.80;65.40;;;;;;5057431;28;20025;-79
2022/09/09 00:42:03;;;;;;;2.85;1.52;;;25.60;66.20;;;;;;5061947;28;20020;-79
2022/09/09 00:44:45;;;;;;;4.35;1.70;;;25.60;65.70;;;;;;5068154;28;20044;-77
2022/09/09 00:47:25;;;;;;;2.78;1.65;;;25.90;64.80;;;;;;5063075;28;20426;-78
2022/09/09 00:49:56;;;;;;;3.08;1.70;;;26.00;64.00;;;;;;5051979;28;20036;-77
2022/09/09 00:52:28;;;;;;;2.75;1.60;;;26.00;65.10;;;;;;5064866;28;20023;-81
2022/09/09 00:55:09;;;;;;;4.38;1.60;;;25.90;64.40;;;;;;5071190;28;20020;-80
2022/09/09 00:57:36;;;;;;;3.08;1.40;;;25.80;64.70;;;;;;5070936;28;20060;-79
2022/09/09 01:00:18;;;;;;;3.13;1.70;;;25.20;65.60;;;;;;5075298;28;20029;-80
2022/09/09 01:03:17;;;;;;;2.60;1.50;;;25.10;65.90;;;;;;5079485;28;20035;-80
2022/09/09 01:05:58;;;;;;;4.68;1.50;;;25.10;66.00;;;;;;5052325;28;20570;-80
2022/09/09 01:08:30;;;;;;;3.05;1.70;;;25.10;66.00;;;;;;5053431;28;20021;-83
2022/09/09 01:10:58;;;;;;;2.75;1.55;;;25.00;66.20;;;;;;5071877;28;20078;-80
2022/09/09 01:13:30;;;;;;;3.78;1.60;;;24.90;67.20;;;;;;5073255;28;20523;-79
2022/09/09 01:15:59;;;;;;;4.38;1.60;;;25.10;67.20;;;;;;5066020;28;20060;-81
2022/09/09 01:18:30;;;;;;;4.80;1.58;;;25.10;66.10;;;;;;5074979;28;20027;-80
2022/09/09 01:21:15;;;;;;;5.07;1.48;;;25.00;66.60;;;;;;5060070;28;20082;-81
2022/09/09 01:24:02;;;;;;;2.92;1.40;;;25.00;66.10;;;;;;5065394;28;20079;-81
2022/09/09 01:26:33;;;;;;;4.05;1.60;;;25.10;66.50;;;;;;5072444;28;20369;-84
2022/09/09 01:28:59;;;;;;;2.40;1.40;;;25.30;66.00;;;;;;5096477;28;20082;-84
2022/09/09 01:31:41;;;;;;;3.50;1.50;;;25.50;65.70;;;;;;5055160;28;20024;-83
2022/09/09 01:34:14;;;;;;;2.95;1.73;;;25.40;65.50;;;;;;5072613;28;20051;-84
2022/09/09 01:36:53;;;;;;;2.47;1.50;;;25.50;65.10;;;;;;5074618;28;20021;-82
2022/09/09 01:39:19;;;;;;;2.97;1.52;;;25.70;64.60;;;;;;5066710;28;20035;-83
2022/09/09 01:41:45;;;;;;;3.72;1.70;;;25.70;64.60;;;;;;5075704;28;20468;-85
2022/09/09 01:44:11;;;;;;;6.32;1.67;;;25.70;64.70;;;;;;5074842;28;20040;-82
2022/09/09 01:46:37;;;;;;;3.25;1.90;;;25.60;64.20;;;;;;5072494;28;20028;-83
2022/09/09 01:49:06;;;;;;;3.38;1.88;;;25.70;64.70;;;;;;5073703;28;20047;-83
2022/09/09 01:51:33;;;;;;;2.80;1.83;;;25.60;65.50;;;;;;5072865;28;20550;-83
2022/09/09 01:54:00;;;;;;;2.45;1.55;;;25.50;65.00;;;;;;5074696;28;20028;-82
2022/09/09 01:56:44;;;;;;;3.53;1.70;;;25.60;65.00;;;;;;5058193;28;20026;-85
2022/09/09 01:59:22;;;;;;;3.83;1.60;;;25.60;65.50;;;;;;5070474;28;20459;-85
2022/09/09 02:01:53;;;;;;;2.90;1.67;;;25.60;64.80;;;;;;5070619;28;20027;-83
2022/09/09 02:04:43;;;;;;;3.78;1.80;;;25.70;64.30;;;;;;5072304;28;20032;-89
2022/09/09 02:07:39;;;;;;;3.15;1.70;;;25.50;65.50;;;;;;5075893;28;20021;-83
2022/09/09 02:10:32;;;;;;;4.88;1.90;;;25.10;66.10;;;;;;5076561;28;20028;-81
2022/09/09 02:13:19;;;;;;;2.83;1.70;;;25.10;65.70;;;;;;5066384;28;20158;-81
2022/09/09 02:15:48;;;;;;;3.20;1.60;;;25.10;66.40;;;;;;5075860;28;20166;-79
2022/09/09 02:18:17;;;;;;;3.65;1.80;;;24.90;66.10;;;;;;5071354;28;20025;-90
2022/09/09 02:20:44;;;;;;;2.90;2.05;;;25.00;66.00;;;;;;5054589;28;20025;-85
2022/09/09 02:23:12;;;;;;;2.45;1.60;;;25.10;65.80;;;;;;5061436;28;20448;-84
2022/09/09 02:25:41;;;;;;;2.80;1.83;;;25.10;66.30;;;;;;5066763;28;20059;-88
2022/09/09 02:28:10;;;;;;;4.13;1.90;;;25.30;65.90;;;;;;5073686;28;20028;-88
2022/09/09 02:30:38;;;;;;;2.70;1.67;;;25.30;65.50;;;;;;5063145;28;20054;-86
2022/09/09 02:33:07;;;;;;;4.40;1.90;;;25.30;65.80;;;;;;5076976;28;20024;-86
2022/09/09 02:35:37;;;;;;;4.28;1.95;;;25.30;65.80;;;;;;5075503;28;20067;-83
2022/09/09 02:38:10;;;;;;;2.70;1.90;;;25.40;65.90;;;;;;5075301;28;20388;-90
2022/09/09 02:40:36;;;;;;;4.57;1.77;;;25.40;65.40;;;;;;5056079;28;20431;-85
2022/09/09 02:43:02;;;;;;;5.38;2.00;;;25.30;65.50;;;;;;5079481;28;20459;-87
2022/09/09 02:45:54;;;;;;;3.10;1.90;;;25.30;65.20;;;;;;5078262;28;20061;-85
2022/09/09 02:48:35;;;;;;;3.63;1.92;;;25.50;65.00;;;;;;5074656;28;20477;-89
2022/09/09 02:51:10;;;;;;;3.63;2.00;;;25.30;65.50;;;;;;5083492;28;20057;-84
2022/09/09 02:54:09;;;;;;;3.65;1.98;;;25.30;64.90;;;;;;5085232;28;20021;-85
2022/09/09 02:56:41;;;;;;;3.03;1.90;;;25.30;65.10;;;;;;5064646;28;20078;-91
2022/09/09 02:59:07;;;;;;;2.85;1.80;;;25.00;65.90;;;;;;5054748;28;20388;-78
2022/09/09 03:01:35;;;;;;;2.83;1.90;;;25.00;66.40;;;;;;5078288;28;20024;-86
2022/09/09 03:04:05;;;;;;;3.25;1.80;;;25.00;66.10;;;;;;5060729;28;20391;-93
2022/09/09 03:06:35;;;;;;;3.53;2.10;;;25.30;65.40;;;;;;5073473;28;20348;-91
2022/09/09 03:09:02;;;;;;;5.25;2.13;;;25.60;64.60;;;;;;5078178;28;20039;-89
2022/09/09 03:11:28;;;;;;;6.15;2.42;;;25.70;64.60;;;;;;5077677;28;20020;-90
2022/09/09 03:13:55;;;;;;;3.10;1.95;;;25.70;64.20;;;;;;5074884;28;20505;-90
2022/09/09 03:16:22;;;;;;;3.00;1.98;;;25.60;63.90;;;;;;5070363;28;20017;-88
2022/09/09 03:18:48;;;;;;;4.07;2.17;;;25.50;64.60;;;;;;5058669;28;20036;-86
2022/09/09 03:21:14;;;;;;;4.25;1.88;;;25.30;65.20;;;;;;5057490;28;20479;-90
2022/09/09 03:23:41;;;;;;;2.90;1.90;;;25.20;65.20;;;;;;5077999;28;20071;-95
2022/09/09 03:26:07;;;;;;;4.50;1.90;;;25.30;64.90;;;;;;5076261;28;20479;-83
2022/09/09 03:28:32;;;;;;;3.25;2.00;;;25.40;64.60;;;;;;5067837;28;20104;-85
2022/09/09 03:31:00;;;;;;;4.93;2.10;;;25.40;64.60;;;;;;5055821;28;20124;-90
2022/09/09 03:33:26;;;;;;;3.53;1.85;;;25.40;65.00;;;;;;5096005;28;20032;-94
2022/09/09 03:35:56;;;;;;;3.88;2.00;;;25.30;64.70;;;;;;5063933;28;20075;-92
2022/09/09 03:38:23;;;;;;;4.53;1.95;;;25.40;64.50;;;;;;5063864;28;20021;-91
2022/09/09 03:40:57;;;;;;;3.08;2.00;;;25.40;65.20;;;;;;5071705;28;20392;-83
2022/09/09 03:43:24;;;;;;;3.20;2.00;;;25.30;64.60;;;;;;5068291;28;20098;-87
2022/09/09 03:45:49;;;;;;;3.88;1.75;;;25.00;65.80;;;;;;5066398;28;20028;-89
2022/09/09 03:48:16;;;;;;;3.05;2.10;;;25.00;65.60;;;;;;5070821;28;20047;-87
2022/09/09 03:50:49;;;;;;;3.22;1.90;;;25.10;65.40;;;;;;5061202;28;20375;-92
2022/09/09 03:53:17;;;;;;;3.35;1.60;;;25.00;65.40;;;;;;5069933;28;20441;-91
2022/09/09 03:55:54;;;;;;;3.88;2.10;;;25.00;65.80;;;;;;5073910;28;20021;-90
2022/09/09 03:58:21;;;;;;;3.13;1.85;;;24.90;66.00;;;;;;5076581;28;20029;-86
2022/09/09 04:01:02;;;;;;;3.38;2.00;;;25.10;65.30;;;;;;5073527;28;20028;-89
2022/09/09 04:03:29;;;;;;;3.08;1.75;;;25.00;65.40;;;;;;5077596;28;20071;-89
2022/09/09 04:06:56;;;;;;;3.85;1.90;;;25.00;64.90;;;;;;5088786;27;1400243;-88
2022/09/09 04:09:22;;;;;;;5.00;1.85;;;25.10;64.90;;;;;;5093173;28;20059;-89
2022/09/09 04:11:49;;;;;;;3.00;1.90;;;25.10;64.80;;;;;;5086643;28;20068;-87
2022/09/09 04:14:15;;;;;;;3.65;1.80;;;24.90;65.80;;;;;;5085155;28;20024;-87
2022/09/09 04:16:44;;;;;;;3.20;1.92;;;25.00;65.10;;;;;;5092773;28;20084;-84
2022/09/09 04:19:12;;;;;;;4.25;1.83;;;24.90;65.30;;;;;;5092700;28;20497;-89
2022/09/09 04:21:39;;;;;;;4.82;2.00;;;25.00;65.10;;;;;;5093805;28;20479;-87
2022/09/09 04:24:06;;;;;;;3.42;1.77;;;25.20;64.60;;;;;;5090014;28;20024;-81
2022/09/09 04:26:32;;;;;;;4.78;2.03;;;25.20;64.40;;;;;;5112161;28;20470;-79
2022/09/09 04:28:58;;;;;;;3.65;1.90;;;25.10;64.50;;;;;;5088501;28;20036;-94
2022/09/09 04:31:24;;;;;;;3.80;2.00;;;25.10;64.40;;;;;;5110568;28;20035;-84
2022/09/09 04:33:53;;;;;;;3.72;1.90;;;25.10;64.30;;;;;;5089856;28;20115;-90
2022/09/09 04:36:19;;;;;;;3.17;1.95;;;25.00;64.80;;;;;;5078297;28;20043;-85
2022/09/09 04:38:45;;;;;;;4.03;2.00;;;24.90;65.10;;;;;;5092406;28;20031;-84
2022/09/09 04:41:12;;;;;;;3.35;2.00;;;24.90;65.30;;;;;;5091016;28;20041;-83
2022/09/09 04:43:39;;;;;;;4.57;2.00;;;25.00;64.90;;;;;;5085909;28;20028;-86
2022/09/09 04:46:05;;;;;;;4.15;2.00;;;25.10;64.40;;;;;;5088848;28;20046;-84
2022/09/09 04:48:31;;;;;;;3.10;2.00;;;25.00;64.90;;;;;;5092358;28;20016;-86
2022/09/09 04:51:01;;;;;;;3.15;1.83;;;25.10;64.70;;;;;;5076186;28;20410;-88
2022/09/09 04:53:27;;;;;;;5.55;2.30;;;25.10;64.50;;;;;;5072586;28;20020;-88
2022/09/09 04:56:04;;;;;;;3.10;1.80;;;25.10;65.00;;;;;;5087086;28;20027;-88
2022/09/09 04:58:30;;;;;;;3.83;2.10;;;25.00;64.80;;;;;;5092730;28;20401;-87
2022/09/09 05:01:06;;;;;;;2.90;1.75;;;24.70;65.60;;;;;;5093117;28;20035;-85
2022/09/09 05:03:32;;;;;;;2.88;1.98;;;24.80;65.80;;;;;;5092894;28;20020;-83
2022/09/09 05:06:06;;;;;;;3.67;2.03;;;24.90;66.00;;;;;;5091841;28;20066;-83
2022/09/09 05:08:32;;;;;;;4.18;1.75;;;24.90;65.40;;;;;;5069487;28;20027;-82
2022/09/09 05:10:59;;;;;;;4.13;1.90;;;24.80;65.70;;;;;;5077789;28;20025;-89
2022/09/09 05:13:25;;;;;;;3.92;1.95;;;24.60;66.30;;;;;;5059739;28;20327;-88
2022/09/09 05:15:53;;;;;;;4.35;2.00;;;24.70;66.20;;;;;;5072553;28;20028;-87
2022/09/09 05:18:18;;;;;;;3.25;1.92;;;24.80;65.80;;;;;;5059419;28;20016;-85
2022/09/09 05:20:44;;;;;;;3.58;1.85;;;24.90;66.10;;;;;;5058560;28;20028;-87
2022/09/09 05:23:13;;;;;;;4.45;1.80;;;24.90;66.20;;;;;;5058044;28;20021;-89
2022/09/09 05:25:40;;;;;;;6.40;2.17;;;25.10;65.90;;;;;;5058071;28;20051;-81
2022/09/09 05:28:07;;;;;;;3.20;2.00;;;25.00;65.60;;;;;;5058155;28;20481;-88
2022/09/09 05:30:33;;;;;;;6.03;2.15;;;24.90;66.00;;;;;;5058170;28;20028;-90
2022/09/09 05:35:09;;;;;;;4.40;1.98;;;25.20;65.10;;;;;;5071394;28;20429;-81
2022/09/09 05:37:35;;;;;;;5.97;2.30;;;25.10;65.10;;;;;;5071406;28;20185;-90
2022/09/09 05:40:01;;;;;;;5.35;2.53;;;25.10;65.70;;;;;;5070483;28;20450;-77
2022/09/09 05:42:31;;;;;;;4.55;1.95;;;25.20;65.00;;;;;;5090321;28;20017;-91
2022/09/09 05:44:57;;;;;;;4.95;3.00;;;24.50;67.00;;;;;;5086834;28;20025;-83
2022/09/09 05:47:23;;;;;;;6.75;3.70;;;24.70;66.60;;;;;;5070013;28;20025;-84
2022/09/09 05:49:49;;;;;;;5.30;2.20;;;24.90;65.70;;;;;;5077409;28;20073;-89
2022/09/09 05:52:17;;;;;;;3.60;2.00;;;25.20;65.50;;;;;;5069680;28;20123;-88
2022/09/09 05:54:43;;;;;;;4.57;2.20;;;25.40;65.10;;;;;;5069539;28;20037;-89
2022/09/09 05:57:09;;;;;;;4.35;2.30;;;25.50;65.00;;;;;;5069138;28;20033;-79
2022/09/09 05:59:35;;;;;;;5.20;2.50;;;25.50;64.70;;;;;;5069365;28;20029;-83
2022/09/09 06:02:00;;;;;;;4.78;2.33;;;25.40;64.70;;;;;;5069208;28;20052;-93
2022/09/09 06:04:26;;;;;;;4.35;2.22;;;25.30;65.30;;;;;;5060772;28;20033;-82
2022/09/09 06:06:52;;;;;;;3.78;2.22;;;25.50;64.90;;;;;;5060572;28;20021;-85
2022/09/09 06:09:17;;;;;;;3.53;2.20;;;25.50;64.60;;;;;;5062855;28;20029;-86
2022/09/09 06:11:43;;;;;;;3.20;2.13;;;25.70;64.70;;;;;;5057040;28;20465;-91
2022/09/09 06:14:09;;;;;;;5.47;2.20;;;25.80;64.60;;;;;;5069020;28;20033;-84
2022/09/09 06:16:37;;;;;;;3.42;2.20;;;26.00;64.00;;;;;;5068388;28;20100;-86
2022/09/09 06:19:03;;;;;;;3.78;2.30;;;25.90;64.80;;;;;;5066661;28;20391;-85
2022/09/09 06:21:36;;;;;;;3.47;2.00;;;26.10;64.20;;;;;;5068262;28;20100;-81
2022/09/09 06:24:03;;;;;;;5.10;2.70;;;26.20;63.90;;;;;;5052748;28;20025;-85
2022/09/09 06:26:37;;;;;;;5.35;2.60;;;26.30;63.90;;;;;;5051472;28;20021;-82
2022/09/09 06:29:04;;;;;;;4.05;2.28;;;26.10;63.80;;;;;;5052372;28;20025;-83
2022/09/09 06:31:31;;;;;;;3.63;2.22;;;26.10;64.00;;;;;;5063200;28;20055;-87
2022/09/09 06:33:58;;;;;;;5.05;2.67;;;26.20;64.40;;;;;;5068800;28;20044;-84
2022/09/09 06:36:26;;;;;;;5.10;2.42;;;26.30;63.50;;;;;;5068361;28;20469;-83
2022/09/09 06:38:52;;;;;;;3.00;2.03;;;26.00;63.80;;;;;;5068428;28;20032;-81
2022/09/09 06:41:20;;;;;;;3.28;2.30;;;25.90;64.40;;;;;;5068549;28;20078;-87
2022/09/09 06:43:49;;;;;;;4.50;2.10;;;26.00;64.00;;;;;;5068253;28;20024;-81
2022/09/09 06:46:21;;;;;;;4.30;2.60;;;26.20;63.90;;;;;;5056408;28;20517;-83
2022/09/09 06:48:47;;;;;;;3.58;1.95;;;26.40;63.90;;;;;;5044004;28;20028;-88
2022/09/09 06:51:21;;;;;;;4.45;2.25;;;26.60;63.60;;;;;;5054964;28;20387;-86
2022/09/09 06:53:49;;;;;;;4.35;2.22;;;26.50;63.50;;;;;;5071839;28;20044;-84
2022/09/09 06:56:20;;;;;;;4.20;2.20;;;26.80;63.10;;;;;;5061512;28;20029;-91
2022/09/09 06:59:03;;;;;;;3.35;2.20;;;26.80;62.90;;;;;;5042826;28;20630;-89
2022/09/09 07:01:56;;;;;;;4.18;2.20;;;26.80;62.80;;;;;;5053384;28;20036;-90
2022/09/09 07:04:25;;;;;;;4.00;2.20;;;26.60;62.70;;;;;;5048017;28;20155;-84
2022/09/09 07:10:13;;;;;;;3.30;2.50;;;26.20;63.50;;;;;;5035777;28;20095;-87
2022/09/09 07:12:54;;;;;;;3.92;2.10;;;26.20;63.50;;;;;;5035152;28;20021;-87
2022/09/09 07:15:21;;;;;;;3.67;2.22;;;26.40;63.80;;;;;;5036616;28;20123;-88
2022/09/09 07:17:47;;;;;;;3.72;2.40;;;26.70;63.60;;;;;;5019791;28;20499;-82
2022/09/09 07:20:14;;;;;;;3.88;2.40;;;26.90;62.90;;;;;;4348985;28;10000869;-90
2022/09/09 07:22:40;;;;;;;4.40;2.30;;;26.80;62.90;;;;;;5041848;28;20729;-83
2022/09/09 07:25:10;;;;;;;3.65;2.28;;;27.10;62.40;;;;;;5036832;28;20037;-85
2022/09/09 07:27:36;;;;;;;3.35;2.38;;;27.20;62.50;;;;;;5042314;28;20116;-92
2022/09/09 07:30:03;;;;;;;3.03;1.88;;;27.30;62.30;;;;;;5053125;28;20116;-87
2022/09/09 07:32:30;;;;;;;4.72;2.40;;;27.30;62.00;;;;;;5052961;28;20541;-85
2022/09/09 07:34:58;;;;;;;5.82;2.13;;;27.30;62.20;;;;;;5051814;28;20060;-89
2022/09/09 07:37:24;;;;;;;3.20;2.25;;;27.50;61.70;;;;;;5053126;28;20079;-89
2022/09/09 07:39:51;;;;;;;3.30;1.90;;;27.70;61.80;;;;;;5046822;28;20507;-86
2022/09/09 07:42:17;;;;;;;2.70;1.80;;;27.80;61.30;;;;;;5050924;28;20078;-87
2022/09/09 07:44:42;;;;;;;4.18;2.10;;;27.80;61.40;;;;;;5052395;28;20037;-84
2022/09/09 07:47:08;;;;;;;3.15;2.20;;;27.70;62.10;;;;;;5055322;28;20385;-88
2022/09/09 07:49:34;;;;;;;3.10;1.90;;;27.80;60.60;;;;;;5056910;28;20035;-80
2022/09/09 07:52:02;;;;;;;3.63;2.10;;;28.00;61.80;;;;;;5045144;28;20056;-91
2022/09/09 07:54:27;;;;;;;3.83;2.10;;;28.10;61.40;;;;;;5052257;28;20083;-90
2022/09/09 07:56:53;;;;;;;3.35;2.00;;;28.00;61.50;;;;;;5044492;28;20022;-88
2022/09/09 07:59:19;;;;;;;3.83;2.10;;;28.30;60.80;;;;;;5033739;28;20041;-84
2022/09/09 08:01:54;;;;;;;3.15;1.80;;;28.50;60.70;;;;;;5033778;28;20017;-92
2022/09/09 08:04:21;;;;;;;3.85;2.00;;;28.60;60.30;;;;;;5033693;28;20467;-90
2022/09/09 08:06:53;;;;;;;3.67;1.80;;;28.70;59.80;;;;;;5032588;28;20461;-82
2022/09/09 08:09:20;;;;;;;2.88;2.00;;;28.60;60.40;;;;;;5036293;28;20064;-94
2022/09/09 08:11:46;;;;;;;3.45;1.98;;;28.60;60.80;;;;;;5053525;28;20468;-81
2022/09/09 08:14:14;;;;;;;6.13;2.00;;;28.80;61.00;;;;;;5052120;28;20087;-87
2022/09/09 08:16:46;;;;;;;3.80;1.90;;;29.00;60.60;;;;;;5051863;28;20021;-87
2022/09/09 08:19:12;;;;;;;3.28;2.03;;;29.00;60.50;;;;;;5053034;28;20025;-87
2022/09/09 08:21:40;;;;;;;4.30;2.03;;;29.00;59.30;;;;;;5049901;28;20025;-87
2022/09/09 08:24:06;;;;;;;3.15;1.90;;;28.10;59.90;;;;;;5052341;28;20140;-83
2022/09/09 08:26:37;;;;;;;3.00;2.08;;;28.00;61.50;;;;;;5052779;28;20023;-82
2022/09/09 08:29:04;;;;;;;4.20;1.90;;;28.30;61.70;;;;;;5053256;28;20025;-86
2022/09/09 08:31:37;;;;;;;2.83;2.08;;;28.70;61.20;;;;;;5053178;28;20464;-83
2022/09/09 08:34:04;;;;;;;3.67;1.83;;;29.00;60.50;;;;;;5052693;28;20053;-84
2022/09/09 08:36:36;;;;;;;3.80;1.90;;;29.20;60.40;;;;;;5052704;28;20387;-85
2022/09/09 08:39:03;;;;;;;2.90;1.90;;;29.40;59.90;;;;;;5053162;28;20029;-83
2022/09/09 08:41:38;;;;;;;2.70;1.80;;;29.50;59.40;;;;;;5052844;28;20121;-83
2022/09/09 08:44:34;;;;;;;3.75;2.08;;;29.40;59.40;;;;;;5052917;28;20744;-83
2022/09/09 08:47:34;;;;;;;3.10;1.88;;;29.70;59.40;;;;;;5054186;28;20025;-84
2022/09/09 08:50:23;;;;;;;3.28;1.90;;;30.00;58.50;;;;;;5052623;28;20059;-83
2022/09/09 08:53:21;;;;;;;5.07;2.00;;;30.20;58.70;;;;;;5052620;28;20040;-79
2022/09/09 08:55:52;;;;;;;3.90;2.00;;;30.10;58.40;;;;;;5034757;28;20029;-79
2022/09/09 08:58:30;;;;;;;2.83;1.80;;;30.00;58.60;;;;;;5051802;28;20144;-79
2022/09/09 09:01:08;;;;;;;3.30;1.90;;;30.00;59.40;;;;;;5035441;28;20419;-85
2022/09/09 09:03:51;;;;;;;3.45;2.00;;;30.20;59.30;;;;;;5034540;28;20102;-82
2022/09/09 09:06:36;;;;;;;3.22;2.13;;;30.10;59.40;;;;;;5051844;28;20037;-80
2022/09/09 09:09:23;;;;;;;3.25;2.10;;;30.20;59.30;;;;;;5034247;28;20033;-79
2022/09/09 09:12:03;;;;;;;3.75;1.90;;;30.30;58.50;;;;;;5051762;28;20033;-85
2022/09/09 09:14:33;;;;;;;;;;;30.40;58.90;;;;;;5035024;28;20110;-84
2022/09/09 09:17:20;;;;;;;3.58;2.00;;;30.50;58.80;;;;;;5034729;28;20411;-78
2022/09/09 09:19:48;;;;;;;3.78;2.17;;;30.50;57.60;;;;;;5034552;28;20065;-86
2022/09/09 09:22:22;;;;;;;3.00;1.90;;;30.60;58.30;;;;;;5035057;28;20403;-85
2022/09/09 09:24:56;;;;;;;2.92;1.70;;;30.90;57.10;;;;;;5034163;28;20032;-83
2022/09/09 09:27:32;;;;;;;3.20;2.00;;;30.70;58.30;;;;;;5034645;28;20082;-82
2022/09/09 09:30:00;;;;;;;3.35;2.00;;;30.90;56.30;;;;;;5034501;28;20081;-85
2022/09/09 09:32:30;;;;;;;3.55;2.20;;;31.00;57.40;;;;;;5052020;28;20091;-84
2022/09/09 09:34:58;;;;;;;3.63;2.08;;;31.10;56.30;;;;;;5052982;28;20131;-80
2022/09/09 09:37:31;;;;;;;3.17;2.10;;;31.10;55.90;;;;;;5052992;28;20099;-76
2022/09/09 09:40:09;;;;;;;3.05;2.10;;;31.00;57.00;;;;;;5051858;28;20129;-94
2022/09/09 09:42:35;;;;;;;3.55;1.83;;;31.00;57.70;;;;;;5051645;28;20112;-77
2022/09/09 09:45:28;;;;;;;3.08;1.98;;;30.90;56.60;;;;;;5051845;28;20021;-82
2022/09/09 09:48:03;;;;;;;3.00;2.10;;;30.80;56.50;;;;;;5051789;28;20384;-81
2022/09/09 09:50:29;;;;;;;3.20;2.08;;;30.90;56.60;;;;;;5052925;28;20029;-79
2022/09/09 09:52:57;;;;;;;3.13;2.05;;;30.90;55.30;;;;;;5051785;28;20029;-85
2022/09/09 09:55:24;;;;;;;3.45;2.10;;;30.80;56.90;;;;;;5051468;28;20036;-86
2022/09/09 09:57:49;;;;;;;2.90;1.90;;;31.00;56.60;;;;;;5052871;28;20025;-83
2022/09/09 10:00:18;;;;;;;15.27;14.07;;;31.30;56.10;;;;;;5051298;28;20083;-85
2022/09/09 10:02:46;;;;;;;3.92;2.00;;;31.30;55.00;;;;;;5051483;28;20025;-87
2022/09/09 10:05:29;;;;;;;4.32;2.00;;;31.60;55.90;;;;;;5051842;28;20108;-83
2022/09/09 10:08:09;;;;;;;3.35;1.92;;;32.30;55.80;;;;;;5051672;28;20541;-82
2022/09/09 10:10:35;;;;;;;2.63;1.70;;;32.90;54.50;;;;;;5051539;28;20454;-79
2022/09/09 10:13:18;;;;;;;3.53;1.75;;;32.90;53.50;;;;;;5052439;28;20555;-78
2022/09/09 10:15:50;;;;;;;3.65;1.75;;;32.70;52.60;;;;;;5052837;28;20021;-83
2022/09/09 10:18:52;;;;;;;2.60;1.70;;;32.60;54.00;;;;;;4365617;28;10000751;-79
2022/09/09 10:21:39;;;;;;;3.47;1.80;;;32.40;53.20;;;;;;5042872;28;20029;-82
2022/09/09 10:24:17;;;;;;;2.90;1.90;;;32.60;53.30;;;;;;5036819;28;20033;-81
2022/09/09 10:26:52;;;;;;;2.55;1.70;;;32.80;53.30;;;;;;5036624;28;20022;-83
2022/09/09 10:29:47;;;;;;;2.60;1.60;;;33.30;52.60;;;;;;5035170;28;20033;-78
2022/09/09 10:32:40;;;;;;;2.80;1.73;;;33.10;51.30;;;;;;5034656;28;20481;-85
2022/09/09 10:35:30;;;;;;;3.13;1.83;;;32.50;51.70;;;;;;5035003;28;20069;-85
2022/09/09 10:38:17;;;;;;;3.13;1.60;;;31.80;52.40;;;;;;5035245;28;20033;-85
2022/09/09 10:40:53;;;;;;;2.90;1.80;;;31.80;54.30;;;;;;5035410;28;20067;-85
2022/09/09 10:43:50;;;;;;;4.13;1.75;;;32.00;53.80;;;;;;5035368;28;20068;-83
2022/09/09 10:46:46;;;;;;;3.10;1.70;;;32.10;52.70;;;;;;5035434;28;20396;-85
2022/09/09 10:49:31;;;;;;;3.58;1.60;;;32.20;53.10;;;;;;5035038;28;20100;-85
2022/09/09 10:52:22;;;;;;;2.85;1.70;;;32.40;52.50;;;;;;5034624;28;20112;-84
2022/09/09 10:55:17;;;;;;;2.70;1.60;;;32.30;52.40;;;;;;5035035;28;20052;-89
2022/09/09 10:57:53;;;;;;;3.75;1.98;;;32.20;52.40;;;;;;5034891;28;20429;-86
2022/09/09 11:00:38;;;;;;;3.22;1.70;;;32.10;52.00;;;;;;5035201;28;20036;-84
2022/09/09 11:03:07;;;;;;;3.92;1.80;;;32.20;52.00;;;;;;5034658;28;20380;-85
2022/09/09 11:05:44;;;;;;;4.25;1.70;;;31.90;51.30;;;;;;5034636;28;20021;-85
2022/09/09 11:08:21;;;;;;;3.08;1.83;;;31.80;51.70;;;;;;5034592;28;20029;-84
2022/09/09 11:11:02;;;;;;;3.08;1.58;;;31.90;51.90;;;;;;5034545;28;20064;-84
2022/09/09 11:14:05;;;;;;;2.38;1.60;;;32.10;51.20;;;;;;5033963;28;20022;-85
2022/09/09 11:16:41;;;;;;;2.70;1.50;;;32.00;50.60;;;;;;5035227;28;20476;-90
2022/09/09 11:19:19;;;;;;;3.97;1.60;;;32.00;51.60;;;;;;5034159;28;20113;-79
2022/09/09 11:21:48;;;;;;;2.30;1.50;;;32.30;51.10;;;;;;5034323;28;20480;-85
2022/09/09 11:24:29;;;;;;;2.58;1.60;;;32.60;51.00;;;;;;5034398;28;20026;-78
2022/09/09 11:27:07;;;;;;;2.40;1.40;;;32.80;48.80;;;;;;5035351;28;20112;-86
2022/09/09 11:29:38;;;;;;;4.50;1.70;;;32.70;49.30;;;;;;5034949;28;20076;-87
2022/09/09 11:32:38;;;;;;;3.00;1.55;;;32.20;49.90;;;;;;5034144;28;20029;-81
2022/09/09 11:35:09;;;;;;;3.13;1.50;;;32.10;49.60;;;;;;5035473;28;20069;-79
2022/09/09 11:37:41;;;;;;;2.70;1.60;;;32.00;50.10;;;;;;5033712;28;20332;-88
2022/09/09 11:40:10;;;;;;;2.40;1.40;;;32.00;49.20;;;;;;5034209;28;20034;-81
2022/09/09 11:42:36;;;;;;;2.28;1.35;;;31.80;48.80;;;;;;5035379;28;20381;-81
2022/09/09 11:45:24;;;;;;;3.58;1.50;;;31.70;48.90;;;;;;5035211;28;20048;-83
2022/09/09 11:48:00;;;;;;;3.60;1.52;;;31.70;49.70;;;;;;5033797;28;20483;-84
2022/09/09 11:50:29;;;;;;;3.50;1.50;;;31.60;49.50;;;;;;5033918;28;20026;-81
2022/09/09 11:53:13;;;;;;;3.45;1.55;;;31.70;49.30;;;;;;5033361;28;20076;-86
2022/09/09 11:55:39;;;;;;;2.90;1.50;;;31.60;49.50;;;;;;5035114;28;20033;-86
2022/09/09 11:58:18;;;;;;;3.35;1.40;;;31.60;49.40;;;;;;5033955;28;20137;-84
2022/09/09 12:00:52;;;;;;;2.70;1.42;;;31.70;49.80;;;;;;5033622;28;20026;-83
2022/09/09 12:03:42;;;;;;;2.40;1.40;;;31.80;49.50;;;;;;5033939;28;20076;-83
2022/09/09 12:06:33;;;;;;;2.40;1.30;;;31.80;49.40;;;;;;5033883;28;20396;-86
2022/09/09 12:09:21;;;;;;;3.03;1.40;;;31.80;50.50;;;;;;5033954;28;20388;-86
2022/09/09 12:11:47;;;;;;;2.90;1.50;;;31.90;49.30;;;;;;5035140;28;20029;-86
2022/09/09 12:14:43;;;;;;;2.30;1.38;;;32.30;50.20;;;;;;5033744;28;20044;-83
2022/09/09 12:17:14;;;;;;;2.72;1.30;;;32.60;48.90;;;;;;5033561;28;20030;-87
2022/09/09 12:19:41;;;;;;;2.60;1.45;;;32.80;49.20;;;;;;5033296;28;20029;-90
2022/09/09 12:22:11;;;;;;;3.15;1.40;;;33.00;48.70;;;;;;5033581;28;20049;-90
2022/09/09 12:24:51;;;;;;;3.00;1.50;;;33.00;48.60;;;;;;5033656;28;20025;-89
2022/09/09 12:27:22;;;;;;;2.55;1.42;;;33.10;49.20;;;;;;5033763;28;20021;-87
2022/09/09 12:30:02;;;;;;;2.60;1.50;;;33.20;48.20;;;;;;5033431;28;20205;-88
2022/09/09 12:32:28;;;;;;;4.27;1.57;;;32.90;47.80;;;;;;5033024;28;20029;-88
2022/09/09 12:35:13;;;;;;;6.43;1.45;;;32.50;48.80;;;;;;5032636;28;20448;-78
2022/09/09 12:37:46;;;;;;;2.92;1.35;;;32.20;49.70;;;;;;5033232;28;20033;-92
2022/09/09 12:40:32;;;;;;;2.75;1.50;;;31.80;49.90;;;;;;5033335;28;20473;-87
2022/09/09 12:43:01;;;;;;;3.67;1.42;;;32.00;50.80;;;;;;5032405;28;20021;-89
2022/09/09 12:45:31;;;;;;;2.20;1.35;;;32.30;50.30;;;;;;5033467;28;20022;-85
2022/09/09 12:48:15;;;;;;;2.78;1.50;;;32.70;49.50;;;;;;5032777;28;20397;-88
2022/09/09 12:50:52;;;;;;;3.47;1.40;;;32.80;49.30;;;;;;5033955;28;20231;-87
2022/09/09 12:53:18;;;;;;;3.28;1.50;;;32.90;48.80;;;;;;5032615;28;20520;-84
2022/09/09 12:55:54;;;;;;;2.50;1.50;;;33.10;50.00;;;;;;5032662;28;20082;-87
2022/09/09 12:58:20;;;;;;;4.60;1.40;;;33.20;49.50;;;;;;5032901;28;20024;-87
2022/09/09 13:00:56;;;;;;;3.45;1.45;;;33.20;48.90;;;;;;5032503;28;20029;-86
2022/09/09 13:03:22;;;;;;;2.78;1.52;;;33.10;48.90;;;;;;5032694;28;20369;-83
2022/09/09 13:05:49;;;;;;;2.53;1.40;;;32.50;48.10;;;;;;5032501;28;20381;-82
2022/09/09 13:08:20;;;;;;;4.18;1.45;;;31.90;49.00;;;;;;5034168;28;20029;-82
2022/09/09 13:11:02;;;;;;;2.83;1.40;;;31.80;50.30;;;;;;5033633;28;20029;-88
2022/09/09 13:13:52;;;;;;;3.00;1.63;;;32.20;50.10;;;;;;5032564;28;20048;-83
2022/09/09 13:16:26;;;;;;;4.75;1.65;;;32.40;49.10;;;;;;5032343;28;20388;-85
2022/09/09 13:18:52;;;;;;;2.55;1.50;;;32.60;49.40;;;;;;5034633;28;20064;-87
2022/09/09 13:21:19;;;;;;;2.83;1.30;;;32.70;48.90;;;;;;5033761;28;20507;-80
2022/09/09 13:23:50;;;;;;;2.95;1.30;;;32.70;48.40;;;;;;5032300;28;20029;-90
2022/09/09 13:26:25;;;;;;;2.20;1.33;;;32.60;48.80;;;;;;5032343;28;20029;-89